首页
METAR-TAF:

METAR-TAF

机场 :

的黎波里, 利比亚

Mitiga International Airport

纬度: 32-54N, 经度: 13-17E, 海拔: 11米

当前天气观测

该预报发布于7小时和6分钟前的23:50 UTC
风速3节,风向东南
温度 17°C
湿度 52%
气压 1018 hPa
能見度: 7000
天空无云

METAR: HLLM 242350Z 13003KT 7000 SKC 17/07 Q1018

时间: 08:56 (06:56 UTC)

预报

该预报发布于7小时和56分钟前的23:00 UTC
预报有效从25日的 00点(UTC)到 25日的 24点(UTC)
风速12节,风向东转东北
能見度: 8000
成为
从 25日的 06点(UTC)到 25日的 08点(UTC)
风速10节,风向东转东南

TAF: HLLM 242300Z 2500/2524 06012KT 8000 NSC BECMG 2506/2508 12010KT

超过4000个机场的气象观测和天气预报(METAR&TAF报告)。

可查询的气象台以黄色和红色小点在地图上表示。

将鼠标移到小点上方,可查看气象台名称。

然后点击查看天气观测和预报。

如需切换地图:点击带黑十字的绿色按钮放大地图;点击带横线的绿色按钮缩小地图;或者点击绿色箭头查看邻近地区的地图。


METAR-TAF: